sensor_id;sensor_type;location;lat;lon;timestamp;temperature;humidity
10051;DHT22;5065;46.942;7.432;2022-07-03T00:00:48;20.00;99.90
10051;DHT22;5065;46.942;7.432;2022-07-03T00:03:16;19.90;99.90
10051;DHT22;5065;46.942;7.432;2022-07-03T00:05:43;19.90;99.90
10051;DHT22;5065;46.942;7.432;2022-07-03T00:08:11;19.80;99.90
10051;DHT22;5065;46.942;7.432;2022-07-03T00:10:39;19.80;99.90
10051;DHT22;5065;46.942;7.432;2022-07-03T00:13:06;19.70;99.90
10051;DHT22;5065;46.942;7.432;2022-07-03T00:15:33;19.70;99.90
10051;DHT22;5065;46.942;7.432;2022-07-03T00:18:01;19.60;99.90
10051;DHT22;5065;46.942;7.432;2022-07-03T00:20:33;19.50;99.90
10051;DHT22;5065;46.942;7.432;2022-07-03T00:23:04;19.50;99.90
10051;DHT22;5065;46.942;7.432;2022-07-03T00:25:35;19.50;99.90
10051;DHT22;5065;46.942;7.432;2022-07-03T00:28:03;19.50;99.90
10051;DHT22;5065;46.942;7.432;2022-07-03T00:30:31;19.40;99.90
10051;DHT22;5065;46.942;7.432;2022-07-03T00:32:59;19.40;99.90
10051;DHT22;5065;46.942;7.432;2022-07-03T00:35:32;19.40;99.90
10051;DHT22;5065;46.942;7.432;2022-07-03T00:38:00;19.40;99.90
10051;DHT22;5065;46.942;7.432;2022-07-03T00:40:28;19.30;99.90
10051;DHT22;5065;46.942;7.432;2022-07-03T00:42:56;19.30;99.90
10051;DHT22;5065;46.942;7.432;2022-07-03T00:45:26;19.20;99.90
10051;DHT22;5065;46.942;7.432;2022-07-03T00:47:55;19.20;99.90
10051;DHT22;5065;46.942;7.432;2022-07-03T00:50:25;19.10;99.90
10051;DHT22;5065;46.942;7.432;2022-07-03T00:52:55;19.10;99.90
10051;DHT22;5065;46.942;7.432;2022-07-03T00:55:27;19.00;99.90
10051;DHT22;5065;46.942;7.432;2022-07-03T00:57:56;19.00;99.90
10051;DHT22;5065;46.942;7.432;2022-07-03T01:00:23;19.00;99.90
10051;DHT22;5065;46.942;7.432;2022-07-03T01:02:53;19.00;99.90
10051;DHT22;5065;46.942;7.432;2022-07-03T01:05:27;18.90;99.90
10051;DHT22;5065;46.942;7.432;2022-07-03T01:08:04;18.90;99.90
10051;DHT22;5065;46.942;7.432;2022-07-03T01:10:41;18.80;99.90
10051;DHT22;5065;46.942;7.432;2022-07-03T01:13:14;18.80;99.90
10051;DHT22;5065;46.942;7.432;2022-07-03T01:15:52;18.80;99.90
10051;DHT22;5065;46.942;7.432;2022-07-03T01:18:34;18.80;99.90
10051;DHT22;5065;46.942;7.432;2022-07-03T01:21:07;18.80;99.90
10051;DHT22;5065;46.942;7.432;2022-07-03T01:24:08;18.80;99.90
10051;DHT22;5065;46.942;7.432;2022-07-03T01:26:47;18.80;99.90
10051;DHT22;5065;46.942;7.432;2022-07-03T01:29:22;18.80;99.90
10051;DHT22;5065;46.942;7.432;2022-07-03T01:31:51;18.80;99.90
10051;DHT22;5065;46.942;7.432;2022-07-03T01:34:22;18.70;99.90
10051;DHT22;5065;46.942;7.432;2022-07-03T01:36:54;18.70;99.90
10051;DHT22;5065;46.942;7.432;2022-07-03T01:39:26;18.70;99.90
10051;DHT22;5065;46.942;7.432;2022-07-03T01:41:56;18.60;99.90
10051;DHT22;5065;46.942;7.432;2022-07-03T01:44:27;18.60;99.90
10051;DHT22;5065;46.942;7.432;2022-07-03T01:46:57;18.60;99.90
10051;DHT22;5065;46.942;7.432;2022-07-03T01:49:26;18.60;99.90
10051;DHT22;5065;46.942;7.432;2022-07-03T01:51:54;18.50;99.90
10051;DHT22;5065;46.942;7.432;2022-07-03T01:54:25;18.50;99.90
10051;DHT22;5065;46.942;7.432;2022-07-03T01:56:54;18.60;99.90
10051;DHT22;5065;46.942;7.432;2022-07-03T01:59:21;18.60;99.90
10051;DHT22;5065;46.942;7.432;2022-07-03T02:01:52;18.60;99.90
10051;DHT22;5065;46.942;7.432;2022-07-03T02:04:29;18.60;99.90
10051;DHT22;5065;46.942;7.432;2022-07-03T02:07:12;18.50;99.90
10051;DHT22;5065;46.942;7.432;2022-07-03T02:09:46;18.50;99.90
10051;DHT22;5065;46.942;7.432;2022-07-03T02:12:19;18.50;99.90
10051;DHT22;5065;46.942;7.432;2022-07-03T02:14:53;18.50;99.90
10051;DHT22;5065;46.942;7.432;2022-07-03T02:17:24;18.50;99.90
10051;DHT22;5065;46.942;7.432;2022-07-03T02:19:57;18.50;99.90
10051;DHT22;5065;46.942;7.432;2022-07-03T02:22:27;18.50;99.90
10051;DHT22;5065;46.942;7.432;2022-07-03T02:25:02;18.50;99.90
10051;DHT22;5065;46.942;7.432;2022-07-03T02:27:41;18.40;99.90
10051;DHT22;5065;46.942;7.432;2022-07-03T02:30:11;18.40;99.90
10051;DHT22;5065;46.942;7.432;2022-07-03T02:32:40;18.40;99.90
10051;DHT22;5065;46.942;7.432;2022-07-03T02:35:12;18.40;99.90
10051;DHT22;5065;46.942;7.432;2022-07-03T02:37:45;18.40;99.90
10051;DHT22;5065;46.942;7.432;2022-07-03T02:40:20;18.40;99.90
10051;DHT22;5065;46.942;7.432;2022-07-03T02:43:01;18.30;99.90
10051;DHT22;5065;46.942;7.432;2022-07-03T02:45:35;18.30;99.90
10051;DHT22;5065;46.942;7.432;2022-07-03T02:48:08;18.30;99.90
10051;DHT22;5065;46.942;7.432;2022-07-03T02:50:40;18.30;99.90
10051;DHT22;5065;46.942;7.432;2022-07-03T02:53:14;18.30;99.90
10051;DHT22;5065;46.942;7.432;2022-07-03T02:55:44;18.30;99.90
10051;DHT22;5065;46.942;7.432;2022-07-03T02:58:29;18.20;99.90
10051;DHT22;5065;46.942;7.432;2022-07-03T03:01:03;18.20;99.90
10051;DHT22;5065;46.942;7.432;2022-07-03T03:03:33;18.20;99.90
10051;DHT22;5065;46.942;7.432;2022-07-03T03:06:04;18.20;99.90
10051;DHT22;5065;46.942;7.432;2022-07-03T03:08:36;18.20;99.90
10051;DHT22;5065;46.942;7.432;2022-07-03T03:11:09;18.10;99.90
10051;DHT22;5065;46.942;7.432;2022-07-03T03:13:44;18.10;99.90
10051;DHT22;5065;46.942;7.432;2022-07-03T03:16:16;18.10;99.90
10051;DHT22;5065;46.942;7.432;2022-07-03T03:18:44;18.10;99.90
10051;DHT22;5065;46.942;7.432;2022-07-03T03:21:17;18.10;99.90
10051;DHT22;5065;46.942;7.432;2022-07-03T03:23:46;18.10;99.90
10051;DHT22;5065;46.942;7.432;2022-07-03T03:26:15;18.10;99.90
10051;DHT22;5065;46.942;7.432;2022-07-03T03:28:45;18.10;99.90
10051;DHT22;5065;46.942;7.432;2022-07-03T03:31:12;18.10;99.90
10051;DHT22;5065;46.942;7.432;2022-07-03T03:33:41;18.10;99.90
10051;DHT22;5065;46.942;7.432;2022-07-03T03:36:09;18.10;99.90
10051;DHT22;5065;46.942;7.432;2022-07-03T03:38:37;18.10;99.90
10051;DHT22;5065;46.942;7.432;2022-07-03T03:41:05;18.00;99.90
10051;DHT22;5065;46.942;7.432;2022-07-03T03:43:32;18.00;99.90
10051;DHT22;5065;46.942;7.432;2022-07-03T03:46:02;18.00;99.90
10051;DHT22;5065;46.942;7.432;2022-07-03T03:48:32;18.00;99.90
10051;DHT22;5065;46.942;7.432;2022-07-03T03:51:00;18.00;99.90
10051;DHT22;5065;46.942;7.432;2022-07-03T03:53:29;18.00;99.90
10051;DHT22;5065;46.942;7.432;2022-07-03T03:56:01;17.90;99.90
10051;DHT22;5065;46.942;7.432;2022-07-03T03:58:29;17.90;99.90
10051;DHT22;5065;46.942;7.432;2022-07-03T04:01:01;17.80;99.90
10051;DHT22;5065;46.942;7.432;2022-07-03T04:03:30;17.80;99.90
10051;DHT22;5065;46.942;7.432;2022-07-03T04:05:57;17.80;99.90
10051;DHT22;5065;46.942;7.432;2022-07-03T04:08:26;17.80;99.90
10051;DHT22;5065;46.942;7.432;2022-07-03T04:10:53;17.80;99.90
10051;DHT22;5065;46.942;7.432;2022-07-03T04:13:21;17.80;99.90
10051;DHT22;5065;46.942;7.432;2022-07-03T04:15:49;17.90;99.90
10051;DHT22;5065;46.942;7.432;2022-07-03T04:18:19;17.80;99.90
10051;DHT22;5065;46.942;7.432;2022-07-03T04:20:46;17.90;99.90
10051;DHT22;5065;46.942;7.432;2022-07-03T04:23:13;17.90;99.90
10051;DHT22;5065;46.942;7.432;2022-07-03T04:25:41;17.90;99.90
10051;DHT22;5065;46.942;7.432;2022-07-03T04:28:09;17.80;99.90
10051;DHT22;5065;46.942;7.432;2022-07-03T04:30:39;17.80;99.90
10051;DHT22;5065;46.942;7.432;2022-07-03T04:33:06;17.80;99.90
10051;DHT22;5065;46.942;7.432;2022-07-03T04:35:35;17.80;99.90
10051;DHT22;5065;46.942;7.432;2022-07-03T04:38:04;17.80;99.90
10051;DHT22;5065;46.942;7.432;2022-07-03T04:40:31;17.80;99.90
10051;DHT22;5065;46.942;7.432;2022-07-03T04:42:58;17.80;99.90
10051;DHT22;5065;46.942;7.432;2022-07-03T04:45:25;17.90;99.90
10051;DHT22;5065;46.942;7.432;2022-07-03T04:47:52;18.00;99.90
10051;DHT22;5065;46.942;7.432;2022-07-03T04:50:19;18.00;99.90
10051;DHT22;5065;46.942;7.432;2022-07-03T04:52:48;18.00;99.90
10051;DHT22;5065;46.942;7.432;2022-07-03T04:55:16;18.10;99.90
10051;DHT22;5065;46.942;7.432;2022-07-03T04:57:43;18.20;99.90
10051;DHT22;5065;46.942;7.432;2022-07-03T05:00:10;18.40;99.90
10051;DHT22;5065;46.942;7.432;2022-07-03T05:02:38;18.50;99.90
10051;DHT22;5065;46.942;7.432;2022-07-03T05:05:06;18.70;99.90
10051;DHT22;5065;46.942;7.432;2022-07-03T05:07:33;18.90;99.90
10051;DHT22;5065;46.942;7.432;2022-07-03T05:10:02;19.00;99.90
10051;DHT22;5065;46.942;7.432;2022-07-03T05:12:29;19.30;99.90
10051;DHT22;5065;46.942;7.432;2022-07-03T05:14:56;19.50;99.90
10051;DHT22;5065;46.942;7.432;2022-07-03T05:17:23;19.80;99.90
10051;DHT22;5065;46.942;7.432;2022-07-03T05:19:50;19.80;99.90
10051;DHT22;5065;46.942;7.432;2022-07-03T05:22:38;19.80;99.90
10051;DHT22;5065;46.942;7.432;2022-07-03T05:25:08;19.80;99.90
10051;DHT22;5065;46.942;7.432;2022-07-03T05:27:36;20.00;99.90
10051;DHT22;5065;46.942;7.432;2022-07-03T05:30:04;20.40;99.90
10051;DHT22;5065;46.942;7.432;2022-07-03T05:32:31;20.70;99.90
10051;DHT22;5065;46.942;7.432;2022-07-03T05:34:58;20.90;99.90
10051;DHT22;5065;46.942;7.432;2022-07-03T05:37:26;21.30;99.90
10051;DHT22;5065;46.942;7.432;2022-07-03T05:39:53;21.70;99.90
10051;DHT22;5065;46.942;7.432;2022-07-03T05:42:22;22.20;99.90
10051;DHT22;5065;46.942;7.432;2022-07-03T05:44:49;22.60;99.90
10051;DHT22;5065;46.942;7.432;2022-07-03T05:47:16;22.60;99.90
10051;DHT22;5065;46.942;7.432;2022-07-03T05:49:43;22.80;99.90
10051;DHT22;5065;46.942;7.432;2022-07-03T05:52:11;22.90;99.90
10051;DHT22;5065;46.942;7.432;2022-07-03T05:54:38;23.00;99.90
10051;DHT22;5065;46.942;7.432;2022-07-03T05:57:05;23.30;99.90
10051;DHT22;5065;46.942;7.432;2022-07-03T05:59:34;23.60;99.90
10051;DHT22;5065;46.942;7.432;2022-07-03T06:02:01;23.80;99.90
10051;DHT22;5065;46.942;7.432;2022-07-03T06:04:29;24.20;99.90
10051;DHT22;5065;46.942;7.432;2022-07-03T06:06:56;24.40;99.90
10051;DHT22;5065;46.942;7.432;2022-07-03T06:09:23;24.50;99.90
10051;DHT22;5065;46.942;7.432;2022-07-03T06:11:50;24.80;99.90
10051;DHT22;5065;46.942;7.432;2022-07-03T06:14:18;25.10;99.90
10051;DHT22;5065;46.942;7.432;2022-07-03T06:16:49;25.10;99.90
10051;DHT22;5065;46.942;7.432;2022-07-03T06:19:16;25.10;99.90
10051;DHT22;5065;46.942;7.432;2022-07-03T06:21:44;25.30;99.50
10051;DHT22;5065;46.942;7.432;2022-07-03T06:24:11;25.40;99.30
10051;DHT22;5065;46.942;7.432;2022-07-03T06:26:38;25.60;99.50
10051;DHT22;5065;46.942;7.432;2022-07-03T06:29:06;25.90;98.30
10051;DHT22;5065;46.942;7.432;2022-07-03T06:31:33;26.30;98.60
10051;DHT22;5065;46.942;7.432;2022-07-03T06:34:01;26.80;98.40
10051;DHT22;5065;46.942;7.432;2022-07-03T06:36:29;27.30;97.20
10051;DHT22;5065;46.942;7.432;2022-07-03T06:38:56;27.70;96.20
10051;DHT22;5065;46.942;7.432;2022-07-03T06:41:23;28.00;94.90
10051;DHT22;5065;46.942;7.432;2022-07-03T06:43:50;28.30;93.80
10051;DHT22;5065;46.942;7.432;2022-07-03T06:46:17;28.00;92.70
10051;DHT22;5065;46.942;7.432;2022-07-03T06:48:44;28.00;93.80
10051;DHT22;5065;46.942;7.432;2022-07-03T06:51:13;28.30;93.50
10051;DHT22;5065;46.942;7.432;2022-07-03T06:53:42;28.70;92.50
10051;DHT22;5065;46.942;7.432;2022-07-03T06:56:09;29.00;91.80
10051;DHT22;5065;46.942;7.432;2022-07-03T06:58:36;29.30;91.50
10051;DHT22;5065;46.942;7.432;2022-07-03T07:01:05;29.50;88.70
10051;DHT22;5065;46.942;7.432;2022-07-03T07:03:33;29.50;90.00
10051;DHT22;5065;46.942;7.432;2022-07-03T07:06:00;29.50;88.10
10051;DHT22;5065;46.942;7.432;2022-07-03T07:08:29;29.60;89.30
10051;DHT22;5065;46.942;7.432;2022-07-03T07:10:56;30.00;87.50
10051;DHT22;5065;46.942;7.432;2022-07-03T07:13:23;30.40;87.30
10051;DHT22;5065;46.942;7.432;2022-07-03T07:15:51;30.70;84.90
10051;DHT22;5065;46.942;7.432;2022-07-03T07:18:18;31.00;84.70
10051;DHT22;5065;46.942;7.432;2022-07-03T07:20:45;31.10;82.50
10051;DHT22;5065;46.942;7.432;2022-07-03T07:23:12;31.30;82.20
10051;DHT22;5065;46.942;7.432;2022-07-03T07:25:41;31.40;81.60
10051;DHT22;5065;46.942;7.432;2022-07-03T07:28:08;31.50;80.00
10051;DHT22;5065;46.942;7.432;2022-07-03T07:30:35;31.70;79.80
10051;DHT22;5065;46.942;7.432;2022-07-03T07:33:04;31.90;79.10
10051;DHT22;5065;46.942;7.432;2022-07-03T07:35:31;32.10;79.20
10051;DHT22;5065;46.942;7.432;2022-07-03T07:37:59;32.30;77.50
10051;DHT22;5065;46.942;7.432;2022-07-03T07:40:26;32.50;74.10
10051;DHT22;5065;46.942;7.432;2022-07-03T07:42:54;32.60;72.90
10051;DHT22;5065;46.942;7.432;2022-07-03T07:45:22;32.60;72.50
10051;DHT22;5065;46.942;7.432;2022-07-03T07:47:49;32.80;74.30
10051;DHT22;5065;46.942;7.432;2022-07-03T07:50:16;33.10;71.80
10051;DHT22;5065;46.942;7.432;2022-07-03T07:52:43;33.40;72.10
10051;DHT22;5065;46.942;7.432;2022-07-03T07:55:10;33.80;69.90
10051;DHT22;5065;46.942;7.432;2022-07-03T07:57:39;33.90;70.00
10051;DHT22;5065;46.942;7.432;2022-07-03T08:00:10;34.10;68.70
10051;DHT22;5065;46.942;7.432;2022-07-03T08:02:39;34.20;68.30
10051;DHT22;5065;46.942;7.432;2022-07-03T08:05:24;34.20;68.40
10051;DHT22;5065;46.942;7.432;2022-07-03T08:08:06;34.40;68.90
10051;DHT22;5065;46.942;7.432;2022-07-03T08:10:36;34.70;66.90
10051;DHT22;5065;46.942;7.432;2022-07-03T08:13:03;34.90;67.10
10051;DHT22;5065;46.942;7.432;2022-07-03T08:15:32;35.20;65.50
10051;DHT22;5065;46.942;7.432;2022-07-03T08:17:59;35.50;65.60
10051;DHT22;5065;46.942;7.432;2022-07-03T08:20:27;35.70;63.60
10051;DHT22;5065;46.942;7.432;2022-07-03T08:22:55;35.90;63.80
10051;DHT22;5065;46.942;7.432;2022-07-03T08:25:22;36.10;64.00
10051;DHT22;5065;46.942;7.432;2022-07-03T08:27:49;36.30;61.50
10051;DHT22;5065;46.942;7.432;2022-07-03T08:30:19;36.30;60.70
10051;DHT22;5065;46.942;7.432;2022-07-03T08:32:49;36.40;59.20
10051;DHT22;5065;46.942;7.432;2022-07-03T08:35:19;36.30;57.30
10051;DHT22;5065;46.942;7.432;2022-07-03T08:37:49;36.10;58.30
10051;DHT22;5065;46.942;7.432;2022-07-03T08:40:17;36.20;58.10
10051;DHT22;5065;46.942;7.432;2022-07-03T08:42:47;36.30;58.70
10051;DHT22;5065;46.942;7.432;2022-07-03T08:45:16;36.40;58.30
10051;DHT22;5065;46.942;7.432;2022-07-03T08:47:44;36.60;58.20
10051;DHT22;5065;46.942;7.432;2022-07-03T08:50:16;36.70;58.80
10051;DHT22;5065;46.942;7.432;2022-07-03T08:52:47;36.70;57.00
10051;DHT22;5065;46.942;7.432;2022-07-03T08:55:16;36.70;58.70
10051;DHT22;5065;46.942;7.432;2022-07-03T08:57:44;36.70;57.20
10051;DHT22;5065;46.942;7.432;2022-07-03T09:00:13;36.60;57.30
10051;DHT22;5065;46.942;7.432;2022-07-03T09:02:43;36.60;56.70
10051;DHT22;5065;46.942;7.432;2022-07-03T09:05:13;36.50;56.90
10051;DHT22;5065;46.942;7.432;2022-07-03T09:07:43;36.40;57.50
10051;DHT22;5065;46.942;7.432;2022-07-03T09:10:12;36.40;58.00
10051;DHT22;5065;46.942;7.432;2022-07-03T09:12:40;36.40;57.30
10051;DHT22;5065;46.942;7.432;2022-07-03T09:15:10;36.40;58.50
10051;DHT22;5065;46.942;7.432;2022-07-03T09:17:40;36.50;58.30
10051;DHT22;5065;46.942;7.432;2022-07-03T09:20:27;36.50;57.80
10051;DHT22;5065;46.942;7.432;2022-07-03T09:25:51;36.30;57.20
10051;DHT22;5065;46.942;7.432;2022-07-03T09:28:20;36.20;56.00
10051;DHT22;5065;46.942;7.432;2022-07-03T09:31:00;36.30;57.30
10051;DHT22;5065;46.942;7.432;2022-07-03T09:33:28;36.30;54.50
10051;DHT22;5065;46.942;7.432;2022-07-03T09:35:56;36.30;56.00
10051;DHT22;5065;46.942;7.432;2022-07-03T09:38:25;36.20;55.00
10051;DHT22;5065;46.942;7.432;2022-07-03T09:40:53;36.10;55.80
10051;DHT22;5065;46.942;7.432;2022-07-03T09:43:27;36.00;55.80
10051;DHT22;5065;46.942;7.432;2022-07-03T09:45:56;36.00;54.00
10051;DHT22;5065;46.942;7.432;2022-07-03T09:48:28;35.90;55.00
10051;DHT22;5065;46.942;7.432;2022-07-03T09:51:17;35.70;54.50
10051;DHT22;5065;46.942;7.432;2022-07-03T09:53:55;35.80;53.20
10051;DHT22;5065;46.942;7.432;2022-07-03T09:56:23;35.70;53.60
10051;DHT22;5065;46.942;7.432;2022-07-03T09:59:06;35.30;53.90
10051;DHT22;5065;46.942;7.432;2022-07-03T10:01:35;34.90;53.00
10051;DHT22;5065;46.942;7.432;2022-07-03T10:04:17;34.60;55.70
10051;DHT22;5065;46.942;7.432;2022-07-03T10:06:51;34.50;55.70
10051;DHT22;5065;46.942;7.432;2022-07-03T10:09:20;34.20;54.50
10051;DHT22;5065;46.942;7.432;2022-07-03T10:11:48;34.10;55.10
10051;DHT22;5065;46.942;7.432;2022-07-03T10:14:17;33.90;55.50
10051;DHT22;5065;46.942;7.432;2022-07-03T10:16:45;33.80;54.70
10051;DHT22;5065;46.942;7.432;2022-07-03T10:19:14;33.70;55.40
10051;DHT22;5065;46.942;7.432;2022-07-03T10:21:50;33.70;55.70
10051;DHT22;5065;46.942;7.432;2022-07-03T10:24:20;33.70;56.20
10051;DHT22;5065;46.942;7.432;2022-07-03T10:26:49;33.70;56.00
10051;DHT22;5065;46.942;7.432;2022-07-03T10:29:17;33.70;56.70
10051;DHT22;5065;46.942;7.432;2022-07-03T10:31:47;33.70;57.20
10051;DHT22;5065;46.942;7.432;2022-07-03T10:34:19;33.60;57.50
10051;DHT22;5065;46.942;7.432;2022-07-03T10:36:50;33.70;58.00
10051;DHT22;5065;46.942;7.432;2022-07-03T10:39:35;33.70;56.50
10051;DHT22;5065;46.942;7.432;2022-07-03T10:42:05;33.70;55.70
10051;DHT22;5065;46.942;7.432;2022-07-03T10:45:02;33.60;57.40
10051;DHT22;5065;46.942;7.432;2022-07-03T10:47:46;33.50;58.70
10051;DHT22;5065;46.942;7.432;2022-07-03T10:50:14;33.50;58.20
10051;DHT22;5065;46.942;7.432;2022-07-03T10:52:43;33.40;58.90
10051;DHT22;5065;46.942;7.432;2022-07-03T10:55:12;33.40;57.80
10051;DHT22;5065;46.942;7.432;2022-07-03T10:57:40;33.30;58.00
10051;DHT22;5065;46.942;7.432;2022-07-03T11:00:13;33.20;58.00
10051;DHT22;5065;46.942;7.432;2022-07-03T11:02:42;33.10;58.80
10051;DHT22;5065;46.942;7.432;2022-07-03T11:05:14;33.10;58.90
10051;DHT22;5065;46.942;7.432;2022-07-03T11:08:09;33.10;59.50
10051;DHT22;5065;46.942;7.432;2022-07-03T11:10:38;33.00;59.70
10051;DHT22;5065;46.942;7.432;2022-07-03T11:13:18;33.00;60.10
10051;DHT22;5065;46.942;7.432;2022-07-03T11:15:50;33.00;60.40
10051;DHT22;5065;46.942;7.432;2022-07-03T11:18:26;32.90;60.60
10051;DHT22;5065;46.942;7.432;2022-07-03T11:21:26;32.90;60.10
10051;DHT22;5065;46.942;7.432;2022-07-03T11:24:28;32.80;58.30
10051;DHT22;5065;46.942;7.432;2022-07-03T11:27:21;32.80;59.00
10051;DHT22;5065;46.942;7.432;2022-07-03T11:29:50;32.70;60.20
10051;DHT22;5065;46.942;7.432;2022-07-03T11:32:54;32.60;60.80
10051;DHT22;5065;46.942;7.432;2022-07-03T11:35:44;32.50;59.70
10051;DHT22;5065;46.942;7.432;2022-07-03T11:38:19;32.50;59.70
10051;DHT22;5065;46.942;7.432;2022-07-03T11:40:51;32.50;59.70
10051;DHT22;5065;46.942;7.432;2022-07-03T11:43:19;32.40;60.30
10051;DHT22;5065;46.942;7.432;2022-07-03T11:45:47;32.30;60.10
10051;DHT22;5065;46.942;7.432;2022-07-03T11:48:16;32.30;59.20
10051;DHT22;5065;46.942;7.432;2022-07-03T11:50:45;32.20;60.00
10051;DHT22;5065;46.942;7.432;2022-07-03T11:53:21;32.00;60.70
10051;DHT22;5065;46.942;7.432;2022-07-03T11:55:55;32.00;61.10
10051;DHT22;5065;46.942;7.432;2022-07-03T11:58:24;32.00;62.00
10051;DHT22;5065;46.942;7.432;2022-07-03T12:00:51;32.00;62.70
10051;DHT22;5065;46.942;7.432;2022-07-03T12:03:24;32.00;62.90
10051;DHT22;5065;46.942;7.432;2022-07-03T12:05:54;32.00;61.80
10051;DHT22;5065;46.942;7.432;2022-07-03T12:08:26;32.00;62.60
10051;DHT22;5065;46.942;7.432;2022-07-03T12:11:00;31.90;63.10
10051;DHT22;5065;46.942;7.432;2022-07-03T12:13:28;32.00;63.10
10051;DHT22;5065;46.942;7.432;2022-07-03T12:16:05;32.00;63.10
10051;DHT22;5065;46.942;7.432;2022-07-03T12:18:46;32.00;62.30
10051;DHT22;5065;46.942;7.432;2022-07-03T12:21:16;32.00;62.40
10051;DHT22;5065;46.942;7.432;2022-07-03T12:23:46;32.00;63.00
10051;DHT22;5065;46.942;7.432;2022-07-03T12:26:26;32.00;62.90
10051;DHT22;5065;46.942;7.432;2022-07-03T12:28:57;32.00;61.20
10051;DHT22;5065;46.942;7.432;2022-07-03T12:31:26;32.00;62.60
10051;DHT22;5065;46.942;7.432;2022-07-03T12:33:54;32.00;62.60
10051;DHT22;5065;46.942;7.432;2022-07-03T12:36:22;32.00;63.20
10051;DHT22;5065;46.942;7.432;2022-07-03T12:38:51;32.00;63.00
10051;DHT22;5065;46.942;7.432;2022-07-03T12:41:20;31.90;62.80
10051;DHT22;5065;46.942;7.432;2022-07-03T12:43:49;31.90;63.40
10051;DHT22;5065;46.942;7.432;2022-07-03T12:46:20;31.90;63.20
10051;DHT22;5065;46.942;7.432;2022-07-03T12:48:49;31.90;63.10
10051;DHT22;5065;46.942;7.432;2022-07-03T12:53:59;32.00;63.20
10051;DHT22;5065;46.942;7.432;2022-07-03T12:56:28;32.00;62.40
10051;DHT22;5065;46.942;7.432;2022-07-03T12:58:55;32.10;63.30
10051;DHT22;5065;46.942;7.432;2022-07-03T13:01:40;32.10;62.90
10051;DHT22;5065;46.942;7.432;2022-07-03T13:04:08;32.10;63.30
10051;DHT22;5065;46.942;7.432;2022-07-03T13:06:39;32.00;63.30
10051;DHT22;5065;46.942;7.432;2022-07-03T13:09:07;31.90;63.70
10051;DHT22;5065;46.942;7.432;2022-07-03T13:11:38;31.90;63.90
10051;DHT22;5065;46.942;7.432;2022-07-03T13:14:10;31.90;64.40
10051;DHT22;5065;46.942;7.432;2022-07-03T13:16:41;31.80;64.20
10051;DHT22;5065;46.942;7.432;2022-07-03T13:19:10;31.80;64.50
10051;DHT22;5065;46.942;7.432;2022-07-03T13:21:40;31.80;64.70
10051;DHT22;5065;46.942;7.432;2022-07-03T13:24:09;31.70;64.80
10051;DHT22;5065;46.942;7.432;2022-07-03T13:26:39;31.70;64.50
10051;DHT22;5065;46.942;7.432;2022-07-03T13:29:06;31.60;64.60
10051;DHT22;5065;46.942;7.432;2022-07-03T13:31:33;31.60;64.60
10051;DHT22;5065;46.942;7.432;2022-07-03T13:34:01;31.60;64.70
10051;DHT22;5065;46.942;7.432;2022-07-03T13:36:29;31.50;64.70
10051;DHT22;5065;46.942;7.432;2022-07-03T13:38:57;31.50;65.00
10051;DHT22;5065;46.942;7.432;2022-07-03T13:41:24;31.50;65.10
10051;DHT22;5065;46.942;7.432;2022-07-03T13:43:53;31.40;65.20
10051;DHT22;5065;46.942;7.432;2022-07-03T13:46:22;31.30;65.50
10051;DHT22;5065;46.942;7.432;2022-07-03T13:48:50;31.30;65.90
10051;DHT22;5065;46.942;7.432;2022-07-03T13:51:18;31.30;66.00
10051;DHT22;5065;46.942;7.432;2022-07-03T13:53:45;31.20;65.80
10051;DHT22;5065;46.942;7.432;2022-07-03T13:56:14;31.20;65.90
10051;DHT22;5065;46.942;7.432;2022-07-03T13:58:42;31.20;66.30
10051;DHT22;5065;46.942;7.432;2022-07-03T14:01:10;31.20;66.20
10051;DHT22;5065;46.942;7.432;2022-07-03T14:03:38;31.10;66.60
10051;DHT22;5065;46.942;7.432;2022-07-03T14:06:06;31.10;67.60
10051;DHT22;5065;46.942;7.432;2022-07-03T14:08:37;31.10;66.50
10051;DHT22;5065;46.942;7.432;2022-07-03T14:11:04;31.00;66.50
10051;DHT22;5065;46.942;7.432;2022-07-03T14:13:31;31.00;66.70
10051;DHT22;5065;46.942;7.432;2022-07-03T14:15:59;31.00;66.70
10051;DHT22;5065;46.942;7.432;2022-07-03T14:18:28;31.00;66.80
10051;DHT22;5065;46.942;7.432;2022-07-03T14:20:55;31.00;66.90
10051;DHT22;5065;46.942;7.432;2022-07-03T14:23:23;31.00;66.70
10051;DHT22;5065;46.942;7.432;2022-07-03T14:25:51;30.90;66.80
10051;DHT22;5065;46.942;7.432;2022-07-03T14:28:19;30.90;66.80
10051;DHT22;5065;46.942;7.432;2022-07-03T14:31:04;30.90;67.10
10051;DHT22;5065;46.942;7.432;2022-07-03T14:33:58;30.80;67.10
10051;DHT22;5065;46.942;7.432;2022-07-03T14:36:31;30.80;67.50
10051;DHT22;5065;46.942;7.432;2022-07-03T14:39:02;30.80;67.60
10051;DHT22;5065;46.942;7.432;2022-07-03T14:41:30;30.70;67.60
10051;DHT22;5065;46.942;7.432;2022-07-03T14:43:57;30.70;67.60
10051;DHT22;5065;46.942;7.432;2022-07-03T14:46:25;30.70;67.80
10051;DHT22;5065;46.942;7.432;2022-07-03T14:48:52;30.60;67.20
10051;DHT22;5065;46.942;7.432;2022-07-03T14:51:21;30.60;66.80
10051;DHT22;5065;46.942;7.432;2022-07-03T14:53:51;30.60;67.00
10051;DHT22;5065;46.942;7.432;2022-07-03T14:56:19;30.50;66.90
10051;DHT22;5065;46.942;7.432;2022-07-03T14:58:47;30.50;66.70
10051;DHT22;5065;46.942;7.432;2022-07-03T15:01:19;30.50;67.00
10051;DHT22;5065;46.942;7.432;2022-07-03T15:03:53;30.50;67.00
10051;DHT22;5065;46.942;7.432;2022-07-03T15:06:24;30.40;66.40
10051;DHT22;5065;46.942;7.432;2022-07-03T15:08:58;30.40;66.80
10051;DHT22;5065;46.942;7.432;2022-07-03T15:11:33;30.40;66.70
10051;DHT22;5065;46.942;7.432;2022-07-03T15:14:20;30.40;66.70
10051;DHT22;5065;46.942;7.432;2022-07-03T15:16:49;30.40;67.00
10051;DHT22;5065;46.942;7.432;2022-07-03T15:19:23;30.40;66.80
10051;DHT22;5065;46.942;7.432;2022-07-03T15:21:53;30.40;66.90
10051;DHT22;5065;46.942;7.432;2022-07-03T15:24:21;30.40;67.00
10051;DHT22;5065;46.942;7.432;2022-07-03T15:26:53;30.40;67.30
10051;DHT22;5065;46.942;7.432;2022-07-03T15:29:23;30.40;68.30
10051;DHT22;5065;46.942;7.432;2022-07-03T15:31:50;30.40;67.30
10051;DHT22;5065;46.942;7.432;2022-07-03T15:34:19;30.40;67.40
10051;DHT22;5065;46.942;7.432;2022-07-03T15:36:56;30.50;67.40
10051;DHT22;5065;46.942;7.432;2022-07-03T15:39:29;30.50;67.50
10051;DHT22;5065;46.942;7.432;2022-07-03T15:42:04;30.60;67.50
10051;DHT22;5065;46.942;7.432;2022-07-03T15:44:38;30.70;67.30
10051;DHT22;5065;46.942;7.432;2022-07-03T15:47:27;30.70;67.60
10051;DHT22;5065;46.942;7.432;2022-07-03T15:49:59;30.70;67.20
10051;DHT22;5065;46.942;7.432;2022-07-03T15:52:30;30.70;67.40
10051;DHT22;5065;46.942;7.432;2022-07-03T15:55:02;30.60;66.20
10051;DHT22;5065;46.942;7.432;2022-07-03T15:57:34;30.70;64.90
10051;DHT22;5065;46.942;7.432;2022-07-03T16:00:08;31.00;64.50
10051;DHT22;5065;46.942;7.432;2022-07-03T16:03:01;31.20;64.00
10051;DHT22;5065;46.942;7.432;2022-07-03T16:05:32;31.20;64.30
10051;DHT22;5065;46.942;7.432;2022-07-03T16:08:04;31.20;64.60
10051;DHT22;5065;46.942;7.432;2022-07-03T16:10:33;31.10;64.60
10051;DHT22;5065;46.942;7.432;2022-07-03T16:13:01;31.00;65.50